This is the latest recevied weather packets stored in our database for station/object K1LVA. If no packets are shown the sender has not sent any weather packets the latest 10 day(s).
| Time | Temp. | Humidity | Pressure | Rain* | Wind** | Luminosity | Snow |
|---|---|---|---|---|---|---|---|
| 1777817537 | 13.89° C | 95% | 1020.5 hPa | 0 mm | - | 137 W/m² | - |
| 1777815416 | 11.67° C | 99% | 1019.7 hPa | 0 mm | - | 466 W/m² | - |
| 1777815113 | 11.67° C | 99% | 1019.9 hPa | 0 mm | - | 504 W/m² | - |
| 1777814506 | 11.11° C | 99% | 1020 hPa | 0 mm | - | 470 W/m² | - |
| 1777814204 | 10.56° C | 99% | 1019.8 hPa | 0 mm | - | 181 W/m² | - |
| 1777813598 | 10.56° C | 99% | 1019.9 hPa | 0 mm | - | 68 W/m² | - |
| 1777812085 | 10° C | 99% | 1019.6 hPa | 0 mm | - | 58 W/m² | - |
| 1777811783 | 9.44° C | 99% | 1019.7 hPa | 0 mm | - | 56 W/m² | - |
| 1777811480 | 9.44° C | 99% | 1019.8 hPa | 0 mm | - | 55 W/m² | - |
| 1777811176 | 8.89° C | 99% | 1019.6 hPa | 0 mm | - | 56 W/m² | - |
| 1777810874 | 8.89° C | 99% | 1019.8 hPa | 0 mm | - | 54 W/m² | - |
| 1777810267 | 8.33° C | 99% | 1019.3 hPa | 0 mm | - | 66 W/m² | - |
| 1777809962 | 7.78° C | 99% | 1019.6 hPa | 0 mm | - | 81 W/m² | - |
| 1777809661 | 7.78° C | 99% | 1019.5 hPa | 0 mm | - | 97 W/m² | - |
| 1777809358 | 7.22° C | 99% | 1019.4 hPa | 0 mm | - | 77 W/m² | - |
| 1777808753 | 7.22° C | 99% | 1019.4 hPa | 0 mm | - | 68 W/m² | - |
| 1777808147 | 7.22° C | 99% | 1019.5 hPa | 0 mm | - | 54 W/m² | - |
| 1777807845 | 7.22° C | 99% | 1019.3 hPa | 0 mm | - | 52 W/m² | - |
| 1777806328 | 7.22° C | 99% | 1018.9 hPa | 0 mm | - | 23 W/m² | - |
| 1777804210 | 6.11° C | 99% | 1018.4 hPa | 0 mm | - | 0 W/m² | - |
| 1777802996 | 5.56° C | 99% | 1018.1 hPa | 0 mm | - | 0 W/m² | - |
| 1777802090 | 6.11° C | 99% | 1018 hPa | 0 mm | - | 0 W/m² | - |
| 1777801180 | 6.11° C | 99% | 1018 hPa | 0 mm | - | 0 W/m² | - |
| 1777800878 | 6.11° C | 99% | 1017.6 hPa | 0 mm | - | 0 W/m² | - |
| 1777800573 | 6.67° C | 99% | 1017.9 hPa | 0 mm | - | 0 W/m² | - |
* Rain latest hour (hover to see other rain measurements)
** Current wind speed in m/s (hover to see current wind gust speed)